Time;durP1;ratioP1;P1;durP2;ratioP2;P2;SDS_P1;SDS_P2;PMS_P1;PMS_P2;Temp;Humidity;BMP_temperature;BMP_pressure;BME280_temperature;BME280_humidity;BME280_pressure;Samples;Min_cycle;Max_cycle;Signal;HPM_P1;HPM_P2
2023/05/15 00:01:17;;;;;;;;;;;15.20;99.90;;;;;;5141561;27;19933;-66
2023/05/15 00:03:43;;;;;;;;;;;15.20;99.90;;;;;;5141762;27;19911;-66
2023/05/15 00:06:08;;;;;;;;;;;15.20;99.90;;;;;;5141725;27;19978;-66
2023/05/15 00:08:34;;;;;;;;;;;15.20;99.90;;;;;;5141427;27;20460;-66
2023/05/15 00:11:00;;;;;;;;;;;15.10;99.90;;;;;;5141798;27;19911;-66
2023/05/15 00:13:25;;;;;;;;;;;15.10;99.90;;;;;;5141398;27;19907;-66
2023/05/15 00:15:51;;;;;;;;;;;15.10;99.90;;;;;;5141167;27;19984;-66
2023/05/15 00:18:18;;;;;;;;;;;15.10;99.90;;;;;;5140695;27;20130;-66
2023/05/15 00:20:44;;;;;;;;;;;15.10;99.90;;;;;;5141237;27;20377;-66
2023/05/15 00:23:10;;;;;;;;;;;15.10;99.90;;;;;;5141499;27;19919;-66
2023/05/15 00:25:35;;;;;;;;;;;15.10;99.90;;;;;;5141180;27;19915;-66
2023/05/15 00:28:01;;;;;;;;;;;15.00;99.90;;;;;;5141186;27;19908;-66
2023/05/15 00:30:27;;;;;;;;;;;15.00;99.90;;;;;;5141428;27;20435;-66
2023/05/15 00:32:52;;;;;;;;;;;15.00;99.90;;;;;;5141395;27;19915;-66
2023/05/15 00:35:18;;;;;;;;;;;15.00;99.90;;;;;;5141106;27;19998;-66
2023/05/15 00:37:43;;;;;;;;;;;15.00;99.90;;;;;;5141266;27;19907;-66
2023/05/15 00:40:10;;;;;;;;;;;15.00;99.90;;;;;;5141134;27;19908;-66
2023/05/15 00:42:37;;;;;;;;;;;14.90;99.90;;;;;;5140905;27;19960;-66
2023/05/15 00:45:04;;;;;;;;;;;14.90;99.90;;;;;;5141137;27;20350;-66
2023/05/15 00:47:30;;;;;;;;;;;14.90;99.90;;;;;;5141481;27;19908;-66
2023/05/15 00:49:56;;;;;;;;;;;14.90;99.90;;;;;;5140804;27;19914;-66
2023/05/15 00:52:21;;;;;;;;;;;14.90;99.90;;;;;;5140698;27;19908;-66
2023/05/15 00:54:47;;;;;;;;;;;14.90;99.90;;;;;;5140714;27;19908;-66
2023/05/15 00:57:13;;;;;;;;;;;14.90;99.90;;;;;;5140559;27;20001;-66
2023/05/15 00:59:39;;;;;;;;;;;14.90;99.90;;;;;;5140378;27;20385;-66
2023/05/15 01:02:05;;;;;;;;;;;14.80;99.90;;;;;;5140525;27;19946;-66
2023/05/15 01:04:30;;;;;;;;;;;14.80;99.90;;;;;;5140517;27;19908;-66
2023/05/15 01:06:56;;;;;;;;;;;14.80;99.90;;;;;;5140370;27;19946;-66
2023/05/15 01:09:23;;;;;;;;;;;14.80;99.90;;;;;;5140278;27;19929;-66
2023/05/15 01:11:49;;;;;;;;;;;14.80;99.90;;;;;;5140299;27;19999;-66
2023/05/15 01:14:15;;;;;;;;;;;14.80;99.90;;;;;;5139928;27;19915;-66
2023/05/15 01:16:40;;;;;;;;;;;14.80;99.90;;;;;;5140293;27;19915;-66
2023/05/15 01:19:06;;;;;;;;;;;14.80;99.90;;;;;;5140002;27;19907;-66
2023/05/15 01:21:35;;;;;;;;;;;14.80;99.90;;;;;;5140173;27;19932;-66
2023/05/15 01:24:15;;;;;;;;;;;14.80;99.90;;;;;;5140112;27;20010;-66
2023/05/15 01:26:49;;;;;;;;;;;14.70;99.90;;;;;;5140030;27;20048;-66
2023/05/15 01:29:34;;;;;;;;;;;14.80;99.90;;;;;;5139800;27;19912;-66
2023/05/15 01:32:08;;;;;;;;;;;14.80;99.90;;;;;;5140269;27;19914;-66
2023/05/15 01:34:57;;;;;;;;;;;14.80;99.90;;;;;;5140337;27;19940;-66
2023/05/15 01:37:24;;;;;;;;;;;14.80;99.90;;;;;;5126397;27;19908;-66
2023/05/15 01:39:53;;;;;;;;;;;14.80;99.90;;;;;;5140253;27;19907;-66
2023/05/15 01:42:19;;;;;;;;;;;14.80;99.90;;;;;;5139772;27;19907;-66
2023/05/15 01:44:50;;;;;;;;;;;14.90;99.90;;;;;;5139649;27;19990;-66
2023/05/15 01:47:17;;;;;;;;;;;14.90;99.90;;;;;;5139622;27;19908;-66
2023/05/15 01:49:43;;;;;;;;;;;14.90;99.90;;;;;;5139564;27;20024;-66
2023/05/15 01:52:17;;;;;;;;;;;14.90;99.90;;;;;;5139583;27;19915;-66
2023/05/15 01:54:44;;;;;;;;;;;14.90;99.90;;;;;;5139730;27;19930;-66
2023/05/15 01:57:10;;;;;;;;;;;14.80;99.90;;;;;;5139579;27;19915;-66
2023/05/15 01:59:37;;;;;;;;;;;14.80;99.90;;;;;;5139682;27;19907;-66
2023/05/15 02:02:06;;;;;;;;;;;14.80;99.90;;;;;;5139383;27;19907;-66
2023/05/15 02:04:32;;;;;;;;;;;14.80;99.90;;;;;;5139438;27;19911;-66
2023/05/15 02:06:58;;;;;;;;;;;14.80;99.90;;;;;;5139298;27;19908;-66
2023/05/15 02:09:24;;;;;;;;;;;14.80;99.90;;;;;;5139427;27;19907;-66
2023/05/15 02:11:50;;;;;;;;;;;14.70;99.90;;;;;;5139227;27;19914;-66
2023/05/15 02:14:16;;;;;;;;;;;14.70;99.90;;;;;;5139320;27;19915;-66
2023/05/15 02:16:42;;;;;;;;;;;14.70;99.90;;;;;;5139435;27;19907;-66
2023/05/15 02:19:07;;;;;;;;;;;14.80;99.90;;;;;;5139369;28;20286;-66
2023/05/15 02:21:33;;;;;;;;;;;14.70;99.90;;;;;;5139401;28;19908;-66
2023/05/15 02:23:59;;;;;;;;;;;14.80;99.90;;;;;;5139268;28;20474;-66
2023/05/15 02:26:37;;;;;;;;;;;14.80;99.90;;;;;;5139069;28;19919;-66
2023/05/15 02:29:09;;;;;;;;;;;14.80;99.90;;;;;;5139183;28;19908;-66
2023/05/15 02:31:35;;;;;;;;;;;14.80;99.90;;;;;;5139295;28;19953;-66
2023/05/15 02:34:22;;;;;;;;;;;14.70;99.90;;;;;;5139122;28;19907;-66
2023/05/15 02:36:49;;;;;;;;;;;14.70;99.90;;;;;;5139212;28;20411;-66
2023/05/15 02:39:16;;;;;;;;;;;14.70;99.90;;;;;;5139193;28;19915;-66
2023/05/15 02:41:43;;;;;;;;;;;14.70;99.90;;;;;;5139012;28;19991;-66
2023/05/15 02:44:09;;;;;;;;;;;14.70;99.90;;;;;;5139125;28;19915;-66
2023/05/15 02:46:36;;;;;;;;;;;14.70;99.90;;;;;;5139268;28;20006;-66
2023/05/15 02:49:02;;;;;;;;;;;14.70;99.90;;;;;;5138871;28;20355;-66
2023/05/15 02:51:28;;;;;;;;;;;14.60;99.90;;;;;;5138924;28;19988;-66
2023/05/15 02:53:54;;;;;;;;;;;14.70;99.90;;;;;;5139069;28;19920;-66
2023/05/15 02:56:21;;;;;;;;;;;14.70;99.90;;;;;;5138626;28;19969;-66
2023/05/15 02:58:46;;;;;;;;;;;14.70;99.90;;;;;;5140820;27;19971;-66
2023/05/15 03:01:12;;;;;;;;;;;14.70;99.90;;;;;;5143009;27;20341;-66
2023/05/15 03:03:38;;;;;;;;;;;14.70;99.90;;;;;;5142789;27;19987;-66
2023/05/15 03:06:03;;;;;;;;;;;14.70;99.90;;;;;;5142824;27;19908;-66
2023/05/15 03:08:29;;;;;;;;;;;14.70;99.90;;;;;;5142898;27;19914;-66
2023/05/15 03:10:54;;;;;;;;;;;14.80;99.90;;;;;;5142664;27;19915;-66
2023/05/15 03:13:20;;;;;;;;;;;14.80;99.90;;;;;;5142609;27;19907;-66
2023/05/15 03:15:46;;;;;;;;;;;14.70;99.90;;;;;;5142370;27;20002;-66
2023/05/15 03:18:11;;;;;;;;;;;14.70;99.90;;;;;;5142502;27;19911;-66
2023/05/15 03:20:37;;;;;;;;;;;14.70;99.90;;;;;;5142588;27;19907;-66
2023/05/15 03:23:02;;;;;;;;;;;14.70;99.90;;;;;;5142283;27;19919;-66
2023/05/15 03:25:28;;;;;;;;;;;14.70;99.90;;;;;;5142603;27;19908;-66
2023/05/15 03:27:54;;;;;;;;;;;14.70;99.90;;;;;;5142426;27;20315;-66
2023/05/15 03:30:19;;;;;;;;;;;14.70;99.90;;;;;;5142517;27;19956;-66
2023/05/15 03:32:45;;;;;;;;;;;14.70;99.90;;;;;;5142374;27;19912;-66
2023/05/15 03:35:11;;;;;;;;;;;14.70;99.90;;;;;;5141916;27;19907;-66
2023/05/15 03:37:36;;;;;;;;;;;14.70;99.90;;;;;;5142258;27;19952;-66
2023/05/15 03:40:03;;;;;;;;;;;14.70;99.90;;;;;;5142441;27;19914;-66
2023/05/15 03:42:28;;;;;;;;;;;14.60;99.90;;;;;;5141881;27;20775;-66
2023/05/15 03:44:55;;;;;;;;;;;14.60;99.90;;;;;;5142252;27;19914;-66
2023/05/15 03:47:21;;;;;;;;;;;14.60;99.90;;;;;;5142112;27;19907;-66
2023/05/15 03:49:46;;;;;;;;;;;14.60;99.90;;;;;;5142352;27;19915;-66
2023/05/15 03:52:12;;;;;;;;;;;14.60;99.90;;;;;;5141699;27;19907;-66
2023/05/15 03:54:38;;;;;;;;;;;14.60;99.90;;;;;;5141564;27;19929;-66
2023/05/15 03:57:04;;;;;;;;;;;14.50;99.90;;;;;;5141751;27;19907;-66
2023/05/15 03:59:30;;;;;;;;;;;14.50;99.90;;;;;;5141765;27;19908;-66
2023/05/15 04:01:56;;;;;;;;;;;14.50;99.90;;;;;;5141800;27;19957;-66
2023/05/15 04:04:21;;;;;;;;;;;14.50;99.90;;;;;;5122912;27;19911;-66
2023/05/15 04:06:47;;;;;;;;;;;14.50;99.90;;;;;;5142003;27;19907;-66
2023/05/15 04:09:12;;;;;;;;;;;14.40;99.90;;;;;;5141285;27;19915;-66
2023/05/15 04:11:38;;;;;;;;;;;14.40;99.90;;;;;;5141636;27;20362;-66
2023/05/15 04:14:04;;;;;;;;;;;14.40;99.90;;;;;;5141824;27;20355;-66
2023/05/15 04:16:29;;;;;;;;;;;14.40;99.90;;;;;;5141069;27;19920;-66
2023/05/15 04:18:55;;;;;;;;;;;14.40;99.90;;;;;;5141314;27;19911;-66
2023/05/15 04:21:20;;;;;;;;;;;14.30;99.90;;;;;;5141347;27;19908;-66
2023/05/15 04:23:46;;;;;;;;;;;14.30;99.90;;;;;;5141590;27;19964;-66
2023/05/15 04:26:12;;;;;;;;;;;14.30;99.90;;;;;;5141191;27;19907;-66
2023/05/15 04:28:37;;;;;;;;;;;14.30;99.90;;;;;;5141081;27;19908;-66
2023/05/15 04:31:03;;;;;;;;;;;14.30;99.90;;;;;;5141286;27;19914;-66
2023/05/15 04:33:29;;;;;;;;;;;14.30;99.90;;;;;;5140997;27;19986;-66
2023/05/15 04:35:54;;;;;;;;;;;14.30;99.90;;;;;;5140785;27;19908;-66
2023/05/15 04:38:20;;;;;;;;;;;14.30;99.90;;;;;;5140447;27;19914;-66
2023/05/15 04:40:45;;;;;;;;;;;14.30;99.90;;;;;;5140831;27;19913;-66
2023/05/15 04:43:11;;;;;;;;;;;14.30;99.90;;;;;;5141085;27;20014;-66
2023/05/15 04:45:37;;;;;;;;;;;14.20;99.90;;;;;;5140749;27;19907;-66
2023/05/15 04:48:02;;;;;;;;;;;14.20;99.90;;;;;;5140750;27;20389;-66
2023/05/15 04:50:28;;;;;;;;;;;14.30;99.90;;;;;;5140721;27;21133;-66
2023/05/15 04:52:54;;;;;;;;;;;14.20;99.90;;;;;;5140612;27;19911;-66
2023/05/15 04:55:19;;;;;;;;;;;14.20;99.90;;;;;;5140780;27;19943;-66
2023/05/15 04:57:46;;;;;;;;;;;14.20;99.90;;;;;;5140891;27;19912;-66
2023/05/15 05:00:12;;;;;;;;;;;14.20;99.90;;;;;;5140871;27;19914;-66
2023/05/15 05:02:38;;;;;;;;;;;14.20;99.90;;;;;;5140563;27;19978;-66
2023/05/15 05:05:06;;;;;;;;;;;14.20;99.90;;;;;;5140384;27;19907;-66
2023/05/15 05:07:32;;;;;;;;;;;14.20;99.90;;;;;;5140394;27;19908;-66
2023/05/15 05:09:57;;;;;;;;;;;14.20;99.90;;;;;;5140562;27;19913;-66
2023/05/15 05:12:23;;;;;;;;;;;14.10;99.90;;;;;;5140582;27;19907;-66
2023/05/15 05:14:48;;;;;;;;;;;14.10;99.90;;;;;;5140282;27;19920;-66
2023/05/15 05:17:14;;;;;;;;;;;14.10;99.90;;;;;;5140083;27;19908;-66
2023/05/15 05:19:40;;;;;;;;;;;14.10;99.90;;;;;;5139887;27;20278;-66
2023/05/15 05:22:06;;;;;;;;;;;14.10;99.90;;;;;;5139256;27;19914;-66
2023/05/15 05:24:32;;;;;;;;;;;14.10;99.90;;;;;;5139752;27;19954;-66
2023/05/15 05:26:58;;;;;;;;;;;14.10;99.90;;;;;;5140179;27;19999;-66
2023/05/15 05:29:23;;;;;;;;;;;14.00;99.90;;;;;;5140214;27;19929;-66
2023/05/15 05:31:50;;;;;;;;;;;14.00;99.90;;;;;;5139881;27;20301;-66
2023/05/15 05:34:15;;;;;;;;;;;14.10;99.90;;;;;;5140342;27;20327;-66
2023/05/15 05:36:41;;;;;;;;;;;14.00;99.90;;;;;;5139776;27;19956;-66
2023/05/15 05:39:06;;;;;;;;;;;14.00;99.90;;;;;;5140111;27;19997;-66
2023/05/15 05:41:32;;;;;;;;;;;14.00;99.90;;;;;;5139712;27;19907;-66
2023/05/15 05:43:58;;;;;;;;;;;14.00;99.90;;;;;;5138850;27;19911;-66
2023/05/15 05:46:25;;;;;;;;;;;14.00;99.90;;;;;;5139172;27;19930;-66
2023/05/15 05:48:50;;;;;;;;;;;14.00;99.90;;;;;;5139099;27;19907;-66
2023/05/15 05:51:16;;;;;;;;;;;14.00;99.90;;;;;;5139030;27;19907;-66
2023/05/15 05:53:41;;;;;;;;;;;14.10;99.90;;;;;;5139155;27;19907;-66
2023/05/15 05:56:07;;;;;;;;;;;14.10;99.90;;;;;;5139477;27;20383;-66
2023/05/15 05:58:34;;;;;;;;;;;14.10;99.90;;;;;;5138933;27;20262;-66
2023/05/15 06:01:00;;;;;;;;;;;14.10;99.90;;;;;;5139115;27;19908;-66
2023/05/15 06:03:26;;;;;;;;;;;14.10;99.90;;;;;;5138526;27;19923;-66
2023/05/15 06:05:52;;;;;;;;;;;14.10;99.90;;;;;;5139301;27;20282;-66
2023/05/15 06:08:18;;;;;;;;;;;14.10;99.90;;;;;;5138800;27;19908;-66
2023/05/15 06:10:44;;;;;;;;;;;14.20;99.90;;;;;;5138892;27;19908;-66
2023/05/15 06:13:10;;;;;;;;;;;14.20;99.90;;;;;;5139007;27;19908;-66
2023/05/15 06:15:36;;;;;;;;;;;14.20;99.90;;;;;;5138707;27;20297;-66
2023/05/15 06:18:02;;;;;;;;;;;14.20;99.90;;;;;;5138987;27;19942;-66
2023/05/15 06:20:28;;;;;;;;;;;14.20;99.90;;;;;;5139021;28;19907;-66
2023/05/15 06:22:53;;;;;;;;;;;14.20;99.90;;;;;;5138664;28;19916;-66
2023/05/15 06:25:19;;;;;;;;;;;14.20;99.90;;;;;;5139175;28;19982;-66
2023/05/15 06:27:46;;;;;;;;;;;14.20;99.90;;;;;;5138657;28;19919;-66
2023/05/15 06:30:12;;;;;;;;;;;14.30;99.90;;;;;;5139033;28;19907;-66
2023/05/15 06:32:38;;;;;;;;;;;14.20;99.90;;;;;;5140461;27;20289;-66
2023/05/15 06:35:04;;;;;;;;;;;14.30;99.90;;;;;;5143028;27;19935;-66
2023/05/15 06:37:30;;;;;;;;;;;14.30;99.90;;;;;;5143102;27;19908;-66
2023/05/15 06:39:56;;;;;;;;;;;14.30;99.90;;;;;;5142846;27;19914;-66
2023/05/15 06:42:22;;;;;;;;;;;14.30;99.90;;;;;;5142467;27;19929;-66
2023/05/15 06:44:51;;;;;;;;;;;14.30;99.90;;;;;;5142607;27;19954;-65
2023/05/15 06:47:17;;;;;;;;;;;14.30;99.90;;;;;;5142945;27;19914;-66
2023/05/15 06:49:43;;;;;;;;;;;14.30;99.90;;;;;;5142605;27;19908;-66
2023/05/15 06:52:08;;;;;;;;;;;14.30;99.90;;;;;;5142764;27;20370;-66
2023/05/15 06:54:34;;;;;;;;;;;14.30;99.90;;;;;;5142445;27;19907;-66
2023/05/15 06:57:00;;;;;;;;;;;14.30;99.90;;;;;;5141952;27;19907;-66
2023/05/15 06:59:26;;;;;;;;;;;14.30;99.90;;;;;;5142464;27;20336;-66
2023/05/15 07:01:52;;;;;;;;;;;14.30;99.90;;;;;;5142519;27;19929;-66
2023/05/15 07:04:18;;;;;;;;;;;14.30;99.90;;;;;;5142232;27;20423;-66
2023/05/15 07:06:44;;;;;;;;;;;14.30;99.90;;;;;;5142338;27;19911;-66
2023/05/15 07:09:10;;;;;;;;;;;14.30;99.90;;;;;;5142338;27;19931;-66
2023/05/15 07:11:37;;;;;;;;;;;14.30;99.90;;;;;;5142058;27;19912;-66
2023/05/15 07:14:03;;;;;;;;;;;14.30;99.90;;;;;;5142127;27;19908;-66
2023/05/15 07:16:29;;;;;;;;;;;14.30;99.90;;;;;;5141771;27;19920;-66
2023/05/15 07:18:55;;;;;;;;;;;14.30;99.90;;;;;;5141888;27;19908;-66
2023/05/15 07:21:20;;;;;;;;;;;14.30;99.90;;;;;;5142223;27;19908;-66
2023/05/15 07:23:46;;;;;;;;;;;14.30;99.90;;;;;;5141886;27;19988;-66
2023/05/15 07:26:15;;;;;;;;;;;14.20;99.90;;;;;;5142435;27;19907;-66
2023/05/15 07:28:41;;;;;;;;;;;14.30;99.90;;;;;;5141915;27;19907;-65
2023/05/15 07:31:07;;;;;;;;;;;14.20;99.90;;;;;;5142189;27;19915;-66
2023/05/15 07:33:33;;;;;;;;;;;14.20;99.90;;;;;;5141658;27;20036;-66
2023/05/15 07:35:58;;;;;;;;;;;14.20;99.90;;;;;;5142002;27;19914;-66
2023/05/15 07:38:24;;;;;;;;;;;14.20;99.90;;;;;;5142023;27;19908;-66
2023/05/15 07:40:50;;;;;;;;;;;14.30;99.90;;;;;;5141918;27;19967;-66
2023/05/15 07:43:16;;;;;;;;;;;14.40;99.90;;;;;;5141464;27;19916;-65
2023/05/15 07:45:42;;;;;;;;;;;14.40;99.90;;;;;;5141397;27;19908;-66
2023/05/15 07:48:14;;;;;;;;;;;14.40;99.90;;;;;;5142014;27;19952;-66
2023/05/15 07:50:40;;;;;;;;;;;14.50;99.90;;;;;;5141724;27;19921;-66
2023/05/15 07:53:05;;;;;;;;;;;14.60;99.90;;;;;;5141249;27;19911;-66
2023/05/15 07:55:31;;;;;;;;;;;14.70;99.90;;;;;;5141879;27;20017;-66
2023/05/15 07:57:56;;;;;;;;;;;14.70;99.90;;;;;;5141582;27;19914;-66
2023/05/15 08:00:22;;;;;;;;;;;14.70;99.90;;;;;;5141364;27;20587;-66
2023/05/15 08:02:48;;;;;;;;;;;14.70;99.90;;;;;;5141369;27;19912;-66
2023/05/15 08:05:14;;;;;;;;;;;14.70;99.90;;;;;;5141298;27;19951;-66
2023/05/15 08:07:39;;;;;;;;;;;14.70;99.90;;;;;;5141434;27;19907;-66
2023/05/15 08:10:06;;;;;;;;;;;14.80;99.90;;;;;;5141134;27;19988;-66
2023/05/15 08:12:31;;;;;;;;;;;14.90;99.90;;;;;;5127017;27;19957;-66
2023/05/15 08:14:57;;;;;;;;;;;15.00;99.90;;;;;;5119643;28;19924;-66
2023/05/15 08:17:23;;;;;;;;;;;15.00;99.90;;;;;;5101841;28;19912;-66
2023/05/15 08:19:49;;;;;;;;;;;15.00;99.90;;;;;;5099992;28;19908;-66
2023/05/15 08:22:15;;;;;;;;;;;15.10;99.90;;;;;;5099289;28;19999;-66
2023/05/15 08:24:41;;;;;;;;;;;15.10;99.90;;;;;;5099720;28;19919;-66
2023/05/15 08:27:07;;;;;;;;;;;15.10;99.90;;;;;;5099724;28;20298;-66
2023/05/15 08:29:33;;;;;;;;;;;15.10;99.90;;;;;;5099823;28;19908;-66
2023/05/15 08:32:00;;;;;;;;;;;15.20;99.90;;;;;;5099540;28;19927;-66
2023/05/15 08:34:25;;;;;;;;;;;15.30;99.90;;;;;;5099472;28;20302;-66
2023/05/15 08:36:51;;;;;;;;;;;15.40;99.90;;;;;;5099404;28;19927;-66
2023/05/15 08:39:17;;;;;;;;;;;15.30;99.90;;;;;;5099227;28;19908;-66
2023/05/15 08:41:56;;;;;;;;;;;15.30;99.90;;;;;;5099473;28;20007;-66
2023/05/15 08:44:22;;;;;;;;;;;15.30;99.90;;;;;;5099476;28;19912;-66
2023/05/15 08:46:48;;;;;;;;;;;15.30;99.90;;;;;;5099348;28;19947;-66
2023/05/15 08:49:21;;;;;;;;;;;15.40;99.90;;;;;;5099137;28;19908;-66
2023/05/15 08:51:47;;;;;;;;;;;15.50;99.90;;;;;;5099133;28;20370;-66
2023/05/15 08:54:13;;;;;;;;;;;15.50;99.90;;;;;;5099257;28;19911;-66
2023/05/15 08:56:39;;;;;;;;;;;15.50;99.90;;;;;;5098009;28;20294;-66
2023/05/15 08:59:05;;;;;;;;;;;15.50;99.90;;;;;;5098980;28;19916;-66
2023/05/15 09:01:31;;;;;;;;;;;15.60;99.90;;;;;;5098902;28;20383;-66
2023/05/15 09:03:57;;;;;;;;;;;15.80;99.90;;;;;;5098902;28;19916;-66
2023/05/15 09:06:23;;;;;;;;;;;16.00;99.90;;;;;;5099009;28;19927;-66
2023/05/15 09:08:50;;;;;;;;;;;16.10;99.90;;;;;;5098845;28;19913;-66
2023/05/15 09:11:16;;;;;;;;;;;16.20;99.90;;;;;;5098807;28;19966;-66
2023/05/15 09:13:41;;;;;;;;;;;16.10;99.90;;;;;;5098768;28;20267;-66
2023/05/15 09:16:07;;;;;;;;;;;16.00;99.90;;;;;;5098561;28;19920;-66
2023/05/15 09:18:33;;;;;;;;;;;16.00;99.90;;;;;;5098724;28;19915;-66
2023/05/15 09:21:17;;;;;;;;;;;15.80;99.90;;;;;;5098715;28;20374;-66
2023/05/15 09:23:42;;;;;;;;;;;15.80;99.90;;;;;;5098824;28;19912;-66
2023/05/15 09:26:11;;;;;;;;;;;15.80;99.90;;;;;;5098863;28;20344;-65
2023/05/15 09:28:36;;;;;;;;;;;15.80;99.90;;;;;;5098251;28;19908;-65
2023/05/15 09:31:03;;;;;;;;;;;15.90;99.90;;;;;;5098558;28;19981;-65
2023/05/15 09:33:32;;;;;;;;;;;15.90;99.90;;;;;;5098277;28;19908;-65
2023/05/15 09:35:58;;;;;;;;;;;15.70;99.90;;;;;;5098715;28;19908;-65
2023/05/15 09:38:24;;;;;;;;;;;15.70;99.90;;;;;;5098663;28;19915;-66
2023/05/15 09:40:50;;;;;;;;;;;15.60;99.90;;;;;;5098418;28;19908;-65
2023/05/15 09:43:16;;;;;;;;;;;15.70;99.90;;;;;;5097802;28;20290;-65
2023/05/15 09:45:42;;;;;;;;;;;15.90;99.90;;;;;;5098203;28;19908;-66
2023/05/15 09:48:10;;;;;;;;;;;15.90;99.90;;;;;;5098169;28;19909;-65
2023/05/15 09:50:38;;;;;;;;;;;15.80;99.90;;;;;;5098210;28;19923;-66
2023/05/15 09:53:04;;;;;;;;;;;15.80;99.90;;;;;;5097719;28;19976;-65
2023/05/15 09:55:31;;;;;;;;;;;15.70;99.90;;;;;;5097917;28;19919;-65
2023/05/15 09:58:05;;;;;;;;;;;15.70;99.90;;;;;;5098117;28;19909;-65
2023/05/15 10:00:31;;;;;;;;;;;15.90;99.90;;;;;;5098247;28;19913;-65
2023/05/15 10:02:57;;;;;;;;;;;16.20;99.90;;;;;;5098182;28;19912;-65
2023/05/15 10:05:25;;;;;;;;;;;16.60;99.90;;;;;;5098112;28;19962;-65
2023/05/15 10:07:53;;;;;;;;;;;17.10;99.90;;;;;;5097517;28;19930;-65
2023/05/15 10:10:18;;;;;;;;;;;17.50;99.90;;;;;;5097970;28;19915;-65
2023/05/15 10:12:44;;;;;;;;;;;18.00;99.90;;;;;;5097834;28;19908;-65
2023/05/15 10:15:10;;;;;;;;;;;18.30;99.90;;;;;;5097566;28;19927;-65
2023/05/15 10:17:36;;;;;;;;;;;18.80;99.90;;;;;;5097836;28;19919;-64
2023/05/15 10:20:05;;;;;;;;;;;18.90;98.90;;;;;;5098233;28;19908;-65
2023/05/15 10:22:34;;;;;;;;;;;18.90;99.90;;;;;;5097659;28;19927;-66
2023/05/15 10:25:08;;;;;;;;;;;18.90;99.90;;;;;;5098093;28;19958;-65
2023/05/15 10:27:34;;;;;;;;;;;18.50;96.40;;;;;;5097687;28;19989;-65
2023/05/15 10:30:01;;;;;;;;;;;18.00;98.60;;;;;;5097616;28;19908;-65
2023/05/15 10:32:27;;;;;;;;;;;17.70;99.50;;;;;;5098081;28;19958;-65
2023/05/15 10:34:53;;;;;;;;;;;17.20;99.90;;;;;;5098020;28;19908;-65
2023/05/15 10:37:20;;;;;;;;;;;17.50;99.90;;;;;;5097980;28;19908;-65
2023/05/15 10:39:46;;;;;;;;;;;18.80;99.90;;;;;;5097377;28;20003;-65
2023/05/15 10:42:12;;;;;;;;;;;20.10;99.90;;;;;;5097552;28;19953;-65
2023/05/15 10:44:38;;;;;;;;;;;21.30;95.80;;;;;;5097657;28;20011;-65
2023/05/15 10:47:04;;;;;;;;;;;21.50;87.40;;;;;;5097664;28;19908;-65
2023/05/15 10:49:30;;;;;;;;;;;21.80;90.50;;;;;;5097988;28;19914;-65
2023/05/15 10:51:58;;;;;;;;;;;21.20;82.00;;;;;;5097485;28;19955;-65
2023/05/15 10:54:24;;;;;;;;;;;22.10;92.90;;;;;;5097295;28;20371;-65
2023/05/15 10:56:50;;;;;;;;;;;22.60;84.10;;;;;;5097364;28;19908;-64
2023/05/15 10:59:15;;;;;;;;;;;21.80;73.20;;;;;;5097195;28;20324;-65
2023/05/15 11:01:41;;;;;;;;;;;21.40;86.90;;;;;;5097340;28;19908;-64
2023/05/15 11:04:08;;;;;;;;;;;20.70;83.40;;;;;;5097413;28;20049;-65
2023/05/15 11:06:34;;;;;;;;;;;19.80;81.00;;;;;;5097732;28;20279;-65
2023/05/15 11:09:18;;;;;;;;;;;19.30;80.30;;;;;;5097608;28;19923;-65
2023/05/15 11:11:55;;;;;;;;;;;18.60;86.70;;;;;;5097435;28;19908;-65
2023/05/15 11:14:50;;;;;;;;;;;18.50;92.30;;;;;;5097348;28;19908;-65
2023/05/15 11:17:16;;;;;;;;;;;18.60;92.80;;;;;;5083877;28;19912;-65
2023/05/15 11:19:48;;;;;;;;;;;18.50;91.00;;;;;;5099089;28;19986;-65
2023/05/15 11:22:13;;;;;;;;;;;18.50;94.40;;;;;;5101324;28;19914;-65
2023/05/15 11:24:47;;;;;;;;;;;19.00;91.20;;;;;;5100852;28;19992;-65
2023/05/15 11:27:16;;;;;;;;;;;19.60;95.60;;;;;;5100890;28;20325;-65
2023/05/15 11:30:00;;;;;;;;;;;19.80;86.30;;;;;;5101087;28;19908;-65
2023/05/15 11:32:42;;;;;;;;;;;19.20;76.00;;;;;;5100846;28;19918;-65
2023/05/15 11:35:08;;;;;;;;;;;19.40;93.60;;;;;;5100682;28;19943;-65
2023/05/15 11:37:36;;;;;;;;;;;20.20;81.10;;;;;;5101096;28;19908;-65
2023/05/15 11:40:04;;;;;;;;;;;20.70;82.00;;;;;;5101035;28;19908;-65
2023/05/15 11:42:30;;;;;;;;;;;21.20;85.30;;;;;;5100640;28;20383;-65
2023/05/15 11:44:56;;;;;;;;;;;22.10;85.30;;;;;;5100629;28;19955;-65
2023/05/15 11:47:22;;;;;;;;;;;22.40;80.50;;;;;;5101060;28;19961;-65
2023/05/15 11:49:48;;;;;;;;;;;22.80;76.90;;;;;;5100712;28;19909;-65
2023/05/15 11:52:15;;;;;;;;;;;23.20;69.80;;;;;;5100310;28;20391;-65
2023/05/15 11:54:41;;;;;;;;;;;23.60;83.60;;;;;;5100418;28;19934;-65
2023/05/15 11:57:07;;;;;;;;;;;24.30;71.60;;;;;;5100530;28;19915;-65
2023/05/15 11:59:33;;;;;;;;;;;24.80;69.10;;;;;;5100524;28;19934;-65
2023/05/15 12:01:58;;;;;;;;;;;24.30;64.80;;;;;;5100505;28;20359;-65
2023/05/15 12:04:24;;;;;;;;;;;24.90;66.60;;;;;;5099944;28;20316;-65
2023/05/15 12:06:50;;;;;;;;;;;24.60;60.90;;;;;;5100407;28;19908;-65
2023/05/15 12:09:17;;;;;;;;;;;24.10;60.80;;;;;;5099943;28;19996;-65
2023/05/15 12:11:50;;;;;;;;;;;23.40;58.80;;;;;;5100192;28;19908;-65
2023/05/15 12:14:16;;;;;;;;;;;22.50;61.90;;;;;;5099769;28;19961;-65
2023/05/15 12:16:41;;;;;;;;;;;22.00;60.90;;;;;;5100051;28;19908;-65
2023/05/15 12:19:08;;;;;;;;;;;21.50;65.80;;;;;;5099931;28;19915;-65
2023/05/15 12:21:34;;;;;;;;;;;22.10;71.00;;;;;;5099740;28;19911;-65
2023/05/15 12:24:00;;;;;;;;;;;22.20;72.60;;;;;;5099611;28;19912;-65
2023/05/15 12:26:27;;;;;;;;;;;21.60;61.40;;;;;;5099666;28;20006;-65
2023/05/15 12:28:54;;;;;;;;;;;21.00;64.50;;;;;;5099694;28;20407;-64
2023/05/15 12:31:20;;;;;;;;;;;20.70;64.10;;;;;;5099495;28;19916;-65
2023/05/15 12:33:45;;;;;;;;;;;20.30;62.90;;;;;;5099978;28;20391;-65
2023/05/15 12:36:11;;;;;;;;;;;20.00;62.70;;;;;;5099880;28;19908;-65
2023/05/15 12:38:37;;;;;;;;;;;19.80;66.90;;;;;;5099552;28;19909;-65
2023/05/15 12:41:04;;;;;;;;;;;20.20;67.20;;;;;;5099762;28;19959;-65
2023/05/15 12:43:30;;;;;;;;;;;20.90;70.40;;;;;;5099433;28;19943;-65
2023/05/15 12:45:56;;;;;;;;;;;21.60;65.90;;;;;;5099484;28;19926;-65
2023/05/15 12:48:22;;;;;;;;;;;21.50;64.90;;;;;;5099562;28;19908;-65
2023/05/15 12:50:48;;;;;;;;;;;21.20;64.10;;;;;;5099603;28;19916;-65
2023/05/15 12:53:15;;;;;;;;;;;21.10;64.60;;;;;;5099069;28;20410;-65
2023/05/15 12:55:42;;;;;;;;;;;20.90;66.70;;;;;;5099489;28;19908;-65
2023/05/15 12:58:09;;;;;;;;;;;21.10;68.50;;;;;;5099249;28;19987;-65
2023/05/15 13:00:35;;;;;;;;;;;21.40;67.80;;;;;;5099102;28;20496;-65
2023/05/15 13:03:01;;;;;;;;;;;21.70;65.30;;;;;;5098930;28;20015;-65
2023/05/15 13:05:30;;;;;;;;;;;22.50;62.30;;;;;;5099498;28;19950;-65
2023/05/15 13:07:57;;;;;;;;;;;22.90;59.50;;;;;;5099260;28;19961;-65
2023/05/15 13:10:23;;;;;;;;;;;22.40;60.00;;;;;;5099048;28;19931;-65
2023/05/15 13:12:50;;;;;;;;;;;22.30;57.20;;;;;;5099148;28;19947;-65
2023/05/15 13:15:24;;;;;;;;;;;21.70;60.00;;;;;;5098164;28;19924;-65
2023/05/15 13:17:56;;;;;;;;;;;21.20;54.80;;;;;;5098156;28;20403;-65
2023/05/15 13:20:22;;;;;;;;;;;21.00;58.70;;;;;;5098510;28;20268;-65
2023/05/15 13:22:48;;;;;;;;;;;21.40;62.30;;;;;;5098466;28;20056;-65
2023/05/15 13:25:18;;;;;;;;;;;21.70;61.10;;;;;;5098260;28;19963;-65
2023/05/15 13:27:45;;;;;;;;;;;21.80;58.40;;;;;;5098306;28;19934;-65
2023/05/15 13:30:12;;;;;;;;;;;21.70;60.90;;;;;;5098241;28;20249;-65
2023/05/15 13:32:37;;;;;;;;;;;21.70;60.10;;;;;;5098521;28;20345;-65
2023/05/15 13:35:03;;;;;;;;;;;21.50;59.10;;;;;;5098459;28;19908;-65
2023/05/15 13:37:29;;;;;;;;;;;21.10;56.20;;;;;;5098128;28;20283;-65
2023/05/15 13:39:55;;;;;;;;;;;20.60;54.60;;;;;;5098650;28;19915;-65
2023/05/15 13:42:20;;;;;;;;;;;20.50;56.20;;;;;;5097566;28;19908;-65
2023/05/15 13:44:46;;;;;;;;;;;20.80;61.20;;;;;;5098223;28;19923;-65
2023/05/15 13:47:11;;;;;;;;;;;21.00;61.60;;;;;;5098203;28;19931;-65
2023/05/15 13:49:37;;;;;;;;;;;21.20;58.40;;;;;;5098105;28;19908;-65
2023/05/15 13:52:03;;;;;;;;;;;21.10;57.80;;;;;;5098220;28;19957;-65
2023/05/15 13:54:29;;;;;;;;;;;20.70;56.00;;;;;;5097967;28;19953;-65
2023/05/15 13:56:55;;;;;;;;;;;20.60;56.40;;;;;;5098044;28;19915;-65
2023/05/15 13:59:21;;;;;;;;;;;20.40;55.30;;;;;;5097969;28;20334;-65
2023/05/15 14:01:46;;;;;;;;;;;20.30;59.10;;;;;;5098054;28;19908;-65
2023/05/15 14:04:12;;;;;;;;;;;20.10;60.00;;;;;;5097628;28;19912;-65
2023/05/15 14:06:38;;;;;;;;;;;20.30;59.20;;;;;;5098036;28;20042;-65
2023/05/15 14:09:03;;;;;;;;;;;20.10;56.10;;;;;;5097901;28;19923;-65
2023/05/15 14:11:29;;;;;;;;;;;20.20;59.40;;;;;;5097753;28;19911;-65
2023/05/15 14:13:55;;;;;;;;;;;20.40;60.30;;;;;;5115863;28;20316;-65